Sealy, TX (77474)

3:36 PM CST on March 03, 2015 (GMT -0600)
South Sealy | Change Station
CLOSE
Current Station
Personal Weather Station
Location: Sealy, TX
Elevation: 197 ft
Nearby Weather Stations

Elev 197 ft 29.76 °N, 96.16 °W | Updated 9 seconds ago

Overcast
Overcast
76.6 °F
Feels Like 78 °F
N
5.1
Wind Variable Wind from North
Gusts 9.8 mph

Today
High -- | Low -- °F
--% Chance of Precip.
Yesterday
High -- | Low -- °F
Precip. -- in
6:48 AM 6:25 PM
Waxing Gibbous, 97% visible
Pressure 29.87 in
Visibility 10.0 miles
Clouds Few 4700 ft
Scattered Clouds 5000 ft
Heat Index 78 °F
Dew Point 67 °F
Humidity 71%
Rainfall 0.00 in
Snow Depth Not available.
UV 4 out of 12
Pollen 8.90 out of 12
Air Quality Not available.
Flu Activity Not available.
METAR KTME 032115Z AUTO 20016G24KT 10SM FEW047 SCT050 25/18 A2987 RMK AO2

More Conditions Fewer Conditions

Pressure 29.87 in
Visibility 10.0 miles
Clouds Few 4700 ft
Scattered Clouds 5000 ft
Heat Index 78 °F
Dew Point 67 °F
Humidity 71%
Rainfall 0.00 in
Snow Depth Not available.
UV 4 out of 12
Pollen 8.90 out of 12
Air Quality Not available.
Flu Activity Not available.
METAR KTME 032115Z AUTO 20016G24KT 10SM FEW047 SCT050 25/18 A2987 RMK AO2

More Conditions Fewer Conditions

10-Day Weather Forecast

Almanac

Astronomy

Mar. 03, 2015 Rise Set
Actual Time
Civil Twilight
Nautical Twilight
Astronomical Twilight
Moon
Length of Visible Light
Length of Day
Tomorrow will be .
, % of the Moon is Illuminated

Today's Extremes

State Highs State Lows

Community

WunderPhotos

Upload Photos

1,802,261 photos uploaded!

WunderBlogs® & News

Nearby

Air Quality

  Air Quality AQ Index Pollutant
Not available.

Snow Depth

Station Depth Elevation

Earthquake Activity

City Distance Mag. Time & Date
Minimum magnitude displayed is 2.5.

Coastal Water Temperatures

Place Temperature

Nearby Weather Stations